Rouen, France

5:42 PM CET on December 25, 2014 (GMT +0100)
Rouen-Vallee de Seine | Change Station
CLOSE
Current Station
Airport
Location: Rouen,
Elevation: 515 ft
Nearby Weather Stations

Elev 515 ft 49.38 °N, 1.18 °E | Updated 12 minutes ago

Clear
Clear
41 °F
Feels Like 37 °F
N
6
Wind Variable Wind from WNW

Today
High -- | Low -- °F
--% Chance of Precip.
Yesterday
High -- | Low -- °F
Precip. -- in
8:49 AM 5:00 PM
Waxing Crescent, 17% visible
Pressure 30.45 in
Visibility 6.2 miles
Clouds
Windchill 37 °F
Dew Point 34 °F
Humidity 76%
Rainfall 0.00 in
Snow Depth Not available.
UV Not available.
Pollen Not available.
Air Quality Not available.
Flu Activity Not available.
METAR LFOP 251630Z AUTO 30005KT 9999 NSC 05/01 Q1031

More Conditions Fewer Conditions

Pressure 30.45 in
Visibility 6.2 miles
Clouds
Windchill 37 °F
Dew Point 34 °F
Humidity 76%
Rainfall 0.00 in
Snow Depth Not available.
UV Not available.
Pollen Not available.
Air Quality Not available.
Flu Activity Not available.
METAR LFOP 251630Z AUTO 30005KT 9999 NSC 05/01 Q1031

More Conditions Fewer Conditions

10-Day Weather Forecast

Almanac

Astronomy

Dec. 25, 2014 Rise Set
Actual Time
Civil Twilight
Nautical Twilight
Astronomical Twilight
Moon
Length of Visible Light
Length of Day
Tomorrow will be .
, % of the Moon is Illuminated

Today's Extremes

Country Highs Country Lows

Community

WunderPhotos

Upload Photos

1,780,339 photos uploaded!

WunderBlogs® & News

Nearby

Air Quality

  Air Quality AQ Index Pollutant
Not available.

Snow Depth

Station Depth Elevation

Earthquake Activity

City Distance Mag. Time & Date
Minimum magnitude displayed is 2.5.

Coastal Water Temperatures

Place Temperature

Nearby Weather Stations